Time;durP1;ratioP1;P1;durP2;ratioP2;P2;SDS_P1;SDS_P2;PMS_P1;PMS_P2;Temp;Humidity;BMP_temperature;BMP_pressure;BME280_temperature;BME280_humidity;BME280_pressure;Samples;Min_cycle;Max_cycle;Signal;HPM_P1;HPM_P2
2021/03/03 00:02:24;;;;;;;8.93;5.10;;;2.30;99.90;;;;;;5105845;28;20170;-79
2021/03/03 00:04:49;;;;;;;6.83;4.50;;;2.20;99.90;;;;;;5106528;28;20171;-79
2021/03/03 00:07:15;;;;;;;5.83;4.33;;;2.10;99.90;;;;;;5108319;28;20590;-79
2021/03/03 00:09:42;;;;;;;7.93;4.90;;;2.00;99.90;;;;;;5091012;28;20203;-79
2021/03/03 00:12:09;;;;;;;8.97;4.67;;;1.90;99.90;;;;;;5091709;28;20177;-79
2021/03/03 00:14:35;;;;;;;10.17;5.30;;;1.80;99.90;;;;;;5091723;28;20195;-79
2021/03/03 00:17:01;;;;;;;9.47;4.90;;;1.80;99.90;;;;;;5107612;28;20162;-79
2021/03/03 00:19:26;;;;;;;7.60;4.50;;;1.70;99.90;;;;;;5090119;28;20178;-79
2021/03/03 00:21:52;;;;;;;8.50;5.03;;;1.70;99.90;;;;;;5108527;28;20629;-79
2021/03/03 00:24:18;;;;;;;11.20;5.90;;;1.70;99.90;;;;;;5107847;28;20204;-79
2021/03/03 00:26:44;;;;;;;8.07;4.70;;;1.70;99.90;;;;;;5107732;28;20264;-79
2021/03/03 00:29:10;;;;;;;7.07;4.73;;;1.70;99.90;;;;;;5089529;28;20227;-79
2021/03/03 00:31:35;;;;;;;8.50;4.23;;;1.70;99.90;;;;;;5089206;28;20183;-79
2021/03/03 00:34:01;;;;;;;7.10;4.50;;;1.80;99.90;;;;;;5089368;28;20204;-79
2021/03/03 00:36:27;;;;;;;7.33;4.30;;;1.80;99.90;;;;;;5089967;28;20191;-79
2021/03/03 00:38:52;;;;;;;7.53;4.60;;;1.90;99.90;;;;;;5108300;28;20177;-79
2021/03/03 00:41:18;;;;;;;9.33;4.30;;;1.80;99.90;;;;;;5106589;28;20591;-79
2021/03/03 00:43:43;;;;;;;4.87;3.80;;;1.90;99.90;;;;;;5108815;28;20270;-79
2021/03/03 00:46:11;;;;;;;8.90;5.03;;;1.70;99.90;;;;;;5088859;28;20183;-79
2021/03/03 00:48:37;;;;;;;6.73;4.17;;;1.80;99.90;;;;;;5087996;28;20754;-79
2021/03/03 00:51:03;;;;;;;8.53;3.73;;;1.70;99.90;;;;;;5088670;28;20181;-79
2021/03/03 00:53:29;;;;;;;6.57;3.93;;;1.80;99.90;;;;;;5107114;28;20667;-79
2021/03/03 00:55:54;;;;;;;5.83;3.57;;;1.80;99.90;;;;;;5107091;28;20308;-79
2021/03/03 00:58:20;;;;;;;6.80;4.10;;;1.80;99.90;;;;;;5088486;28;20182;-79
2021/03/03 01:00:47;;;;;;;5.20;3.00;;;2.00;99.90;;;;;;5106868;28;20188;-79
2021/03/03 01:03:13;;;;;;;5.43;3.10;;;2.00;99.90;;;;;;5107338;28;20260;-79
2021/03/03 01:05:42;;;;;;;5.00;3.27;;;2.10;99.90;;;;;;5107355;28;20178;-79
2021/03/03 01:08:09;;;;;;;7.63;3.83;;;2.20;99.90;;;;;;5088099;28;20210;-79
2021/03/03 01:10:35;;;;;;;5.47;3.53;;;2.20;99.90;;;;;;5106751;28;20208;-79
2021/03/03 01:13:01;;;;;;;7.67;3.60;;;2.10;99.90;;;;;;5106589;28;20197;-79
2021/03/03 01:15:26;;;;;;;7.00;3.10;;;2.10;99.90;;;;;;5107390;28;20230;-79
2021/03/03 01:17:59;;;;;;;4.97;3.33;;;2.10;99.90;;;;;;5087965;28;20208;-79
2021/03/03 01:20:31;;;;;;;10.13;4.00;;;2.00;99.90;;;;;;5107240;28;20160;-79
2021/03/03 01:22:58;;;;;;;6.30;4.17;;;1.80;99.90;;;;;;5107407;28;20811;-79
2021/03/03 01:25:24;;;;;;;5.77;3.63;;;1.70;99.90;;;;;;5088291;28;20418;-79
2021/03/03 01:27:50;;;;;;;6.20;3.63;;;1.60;99.90;;;;;;5106627;28;20454;-79
2021/03/03 01:30:16;;;;;;;6.07;3.83;;;1.60;99.90;;;;;;5108035;28;20626;-79
2021/03/03 01:32:42;;;;;;;4.97;3.77;;;1.50;99.90;;;;;;5089744;28;20228;-79
2021/03/03 01:35:08;;;;;;;4.53;3.50;;;1.30;99.90;;;;;;5088868;28;20176;-79
2021/03/03 01:37:34;;;;;;;8.07;4.23;;;1.30;99.90;;;;;;5089716;28;20900;-79
2021/03/03 01:40:00;;;;;;;7.80;4.20;;;1.30;99.90;;;;;;5089322;28;20441;-79
2021/03/03 01:42:25;;;;;;;8.93;4.17;;;1.30;99.90;;;;;;5089864;28;20579;-79
2021/03/03 01:44:51;;;;;;;6.33;3.73;;;1.10;99.90;;;;;;5108633;28;20172;-79
2021/03/03 01:47:17;;;;;;;5.67;3.87;;;1.20;99.90;;;;;;5108026;28;20176;-79
2021/03/03 01:49:42;;;;;;;9.00;4.43;;;1.20;99.90;;;;;;5108315;28;20236;-79
2021/03/03 01:52:08;;;;;;;7.27;3.77;;;1.20;99.90;;;;;;5090513;28;20201;-79
2021/03/03 01:54:34;;;;;;;8.37;3.73;;;1.40;99.90;;;;;;5108683;28;20195;-79
2021/03/03 01:57:01;;;;;;;5.27;3.40;;;1.40;99.90;;;;;;5091264;28;20176;-79
2021/03/03 01:59:27;;;;;;;11.77;3.80;;;1.40;99.90;;;;;;5108641;28;20177;-79
2021/03/03 02:01:53;;;;;;;7.60;3.40;;;1.30;99.90;;;;;;5092628;28;20485;-79
2021/03/03 02:04:19;;;;;;;4.97;3.23;;;1.40;99.90;;;;;;5087861;28;20202;-79
2021/03/03 02:06:54;;;;;;;5.40;3.43;;;1.30;99.90;;;;;;5103992;28;20591;-79
2021/03/03 02:09:38;;;;;;;6.13;3.60;;;1.30;99.90;;;;;;5085440;28;20203;-79
2021/03/03 02:12:25;;;;;;;5.77;3.20;;;1.30;99.90;;;;;;5102643;28;20398;-79
2021/03/03 02:14:55;;;;;;;6.40;3.40;;;1.30;99.90;;;;;;5104668;28;20163;-79
2021/03/03 02:17:24;;;;;;;4.90;2.50;;;1.40;99.90;;;;;;5104957;28;20160;-79
2021/03/03 02:19:51;;;;;;;5.60;3.07;;;1.30;99.90;;;;;;5105249;28;20406;-79
2021/03/03 02:22:45;;;;;;;5.07;2.87;;;1.40;99.90;;;;;;5085798;28;20270;-79
2021/03/03 02:25:33;;;;;;;6.63;3.33;;;1.30;99.90;;;;;;5086672;28;20415;-79
2021/03/03 02:28:05;;;;;;;5.73;3.37;;;1.20;99.90;;;;;;5085966;28;20246;-79
2021/03/03 02:30:32;;;;;;;5.50;2.83;;;1.20;99.90;;;;;;5103402;28;20406;-79
2021/03/03 02:32:59;;;;;;;5.43;2.93;;;1.20;99.90;;;;;;5084855;28;20192;-79
2021/03/03 02:35:26;;;;;;;4.60;2.50;;;1.30;99.90;;;;;;5103994;28;20239;-79
2021/03/03 02:37:52;;;;;;;3.80;2.70;;;1.20;99.90;;;;;;5084769;28;20422;-79
2021/03/03 02:40:18;;;;;;;4.73;2.77;;;1.20;99.90;;;;;;5104011;28;20173;-79
2021/03/03 02:42:45;;;;;;;6.47;3.30;;;1.20;99.90;;;;;;5103643;28;20642;-79
2021/03/03 02:45:16;;;;;;;7.03;3.07;;;1.10;99.90;;;;;;5084827;28;20234;-79
2021/03/03 02:47:42;;;;;;;5.53;2.60;;;1.00;99.90;;;;;;5103149;28;20944;-79
2021/03/03 02:50:10;;;;;;;5.23;3.30;;;0.90;99.90;;;;;;5085155;28;20521;-79
2021/03/03 02:52:51;;;;;;;4.10;2.40;;;0.80;99.90;;;;;;5103162;28;20493;-79
2021/03/03 02:55:18;;;;;;;4.83;2.73;;;0.70;99.90;;;;;;5085239;28;20176;-79
2021/03/03 02:57:44;;;;;;;4.57;2.83;;;0.60;99.90;;;;;;5084936;28;20472;-79
2021/03/03 03:00:12;;;;;;;5.80;3.53;;;0.60;99.90;;;;;;5085299;28;20176;-79
2021/03/03 03:02:41;;;;;;;4.30;2.83;;;0.50;99.90;;;;;;5104392;28;20512;-79
2021/03/03 03:05:08;;;;;;;3.90;3.10;;;0.50;99.90;;;;;;5084562;28;20452;-79
2021/03/03 03:07:38;;;;;;;4.63;2.53;;;0.60;99.90;;;;;;5102670;28;20458;-79
2021/03/03 03:10:07;;;;;;;3.77;2.67;;;0.60;99.90;;;;;;5103292;28;20425;-79
2021/03/03 03:12:33;;;;;;;4.63;2.80;;;0.60;99.90;;;;;;5084935;28;21161;-79
2021/03/03 03:15:00;;;;;;;3.50;2.70;;;0.80;99.90;;;;;;5085280;28;20505;-79
2021/03/03 03:17:29;;;;;;;4.80;2.33;;;0.90;99.90;;;;;;5102956;28;20406;-79
2021/03/03 03:19:56;;;;;;;4.90;2.40;;;0.80;99.90;;;;;;5084802;28;20804;-79
2021/03/03 03:22:26;;;;;;;3.80;2.23;;;1.00;99.90;;;;;;5103409;28;20403;-79
2021/03/03 04:05:18;;;;;;;3.33;1.83;;;1.40;99.90;;;;;;5107462;28;20452;-79
2021/03/03 04:07:45;;;;;;;3.40;2.10;;;1.50;99.90;;;;;;5107416;28;20468;-79
2021/03/03 04:10:13;;;;;;;4.00;2.13;;;1.50;99.90;;;;;;5089229;28;20421;-79
2021/03/03 04:12:38;;;;;;;3.57;2.20;;;1.50;99.90;;;;;;5089071;28;20214;-79
2021/03/03 04:15:06;;;;;;;2.77;1.77;;;1.50;99.90;;;;;;5107813;28;20493;-79
2021/03/03 04:17:31;;;;;;;4.70;2.07;;;1.50;99.90;;;;;;5107723;28;20276;-79
2021/03/03 04:19:57;;;;;;;3.77;1.90;;;1.50;99.90;;;;;;5107898;28;20405;-79
2021/03/03 04:22:23;;;;;;;3.93;1.73;;;1.50;99.90;;;;;;5107607;28;20172;-79
2021/03/03 04:24:48;;;;;;;3.80;1.93;;;1.70;99.90;;;;;;5106877;28;20172;-79
2021/03/03 04:27:14;;;;;;;2.77;2.00;;;1.60;99.90;;;;;;5107567;28;20183;-79
2021/03/03 04:29:40;;;;;;;3.27;1.70;;;1.80;99.90;;;;;;5107571;28;20176;-79
2021/03/03 04:32:06;;;;;;;2.47;1.97;;;1.60;99.90;;;;;;5088704;28;20702;-79
2021/03/03 04:34:31;;;;;;;2.33;1.97;;;1.60;99.90;;;;;;5106815;28;20692;-79
2021/03/03 04:36:57;;;;;;;2.67;1.90;;;1.60;99.90;;;;;;5106578;28;20173;-79
2021/03/03 04:39:23;;;;;;;3.53;2.47;;;1.50;99.90;;;;;;5087671;28;20181;-79
2021/03/03 04:41:48;;;;;;;4.63;2.67;;;1.60;99.90;;;;;;5106366;28;20168;-79
2021/03/03 04:44:15;;;;;;;4.03;2.33;;;1.40;99.90;;;;;;5106605;28;20192;-79
2021/03/03 04:46:41;;;;;;;9.33;3.00;;;1.30;99.90;;;;;;5106189;28;20214;-79
2021/03/03 04:49:07;;;;;;;3.30;2.40;;;1.20;99.90;;;;;;5087222;28;20212;-79
2021/03/03 04:51:35;;;;;;;8.07;2.40;;;1.10;99.90;;;;;;5107944;28;20493;-78
2021/03/03 04:54:01;;;;;;;3.60;2.13;;;1.00;99.90;;;;;;5119596;28;20191;-78
2021/03/03 04:56:27;;;;;;;3.60;2.37;;;1.00;99.90;;;;;;5088903;28;20418;-79
2021/03/03 04:58:53;;;;;;;5.83;2.53;;;0.90;99.90;;;;;;5085135;28;20414;-79
2021/03/03 05:01:18;;;;;;;4.83;2.20;;;1.00;99.90;;;;;;5085661;28;20183;-79
2021/03/03 05:03:44;;;;;;;4.87;2.63;;;1.00;99.90;;;;;;5085196;28;20203;-79
2021/03/03 05:06:09;;;;;;;4.97;2.90;;;1.00;99.90;;;;;;5103778;28;20207;-79
2021/03/03 05:08:35;;;;;;;7.00;3.93;;;1.00;99.90;;;;;;5103272;28;20214;-79
2021/03/03 05:11:01;;;;;;;4.10;2.67;;;1.10;99.90;;;;;;5083925;28;20222;-79
2021/03/03 05:13:26;;;;;;;4.20;2.67;;;1.10;99.90;;;;;;5083987;28;20200;-79
2021/03/03 05:15:52;;;;;;;2.83;1.80;;;1.20;99.90;;;;;;5102127;28;20204;-79
2021/03/03 05:18:18;;;;;;;6.87;2.00;;;1.20;99.90;;;;;;5101467;28;20207;-79
2021/03/03 05:20:44;;;;;;;2.80;1.87;;;1.20;99.90;;;;;;5082826;28;20183;-79
2021/03/03 05:23:10;;;;;;;2.67;1.80;;;1.20;99.90;;;;;;5086870;28;20670;-79
2021/03/03 05:25:37;;;;;;;2.83;2.30;;;;;;;;;;5107192;28;20437;-79
2021/03/03 05:28:03;;;;;;;3.30;2.27;;;;;;;;;;5107220;28;20294;-79
2021/03/03 05:30:28;;;;;;;2.93;2.07;;;1.20;99.90;;;;;;5106951;28;20469;-79
2021/03/03 05:32:54;;;;;;;3.47;2.13;;;1.10;99.90;;;;;;5089994;28;20442;-79
2021/03/03 05:35:20;;;;;;;3.67;1.90;;;1.00;99.90;;;;;;5107778;28;20176;-79
2021/03/03 05:37:46;;;;;;;2.07;1.53;;;1.10;99.90;;;;;;5107882;28;20211;-79
2021/03/03 05:40:13;;;;;;;2.80;2.00;;;1.00;99.90;;;;;;5089167;28;20191;-79
2021/03/03 05:42:39;;;;;;;13.07;2.23;;;1.10;99.90;;;;;;5106855;28;20286;-79
2021/03/03 05:45:06;;;;;;;6.37;1.83;;;2.10;99.90;;;;;;5088430;28;20415;-79
2021/03/03 05:47:37;;;;;;;6.40;1.70;;;1.20;99.90;;;;;;5101938;28;20234;-79
2021/03/03 05:50:05;;;;;;;2.33;1.80;;;1.30;99.90;;;;;;5100735;28;20522;-79
2021/03/03 05:52:34;;;;;;;3.40;2.20;;;1.30;99.90;;;;;;5083536;28;20418;-79
2021/03/03 05:55:03;;;;;;;1.80;1.60;;;1.40;99.90;;;;;;5083643;28;20449;-79
2021/03/03 05:57:31;;;;;;;1.97;1.53;;;1.40;99.90;;;;;;5102027;28;20791;-78
2021/03/03 05:59:56;;;;;;;3.67;2.47;;;1.50;99.90;;;;;;5084098;28;20505;-78
2021/03/03 06:02:22;;;;;;;4.03;1.97;;;1.50;99.90;;;;;;5102548;28;20434;-79
2021/03/03 06:04:49;;;;;;;3.53;1.90;;;1.60;99.90;;;;;;5084896;28;20179;-79
2021/03/03 06:07:15;;;;;;;6.33;2.00;;;1.70;99.90;;;;;;5083013;28;20219;-79
2021/03/03 06:09:41;;;;;;;2.07;1.63;;;1.50;99.90;;;;;;5087052;28;20453;-79
2021/03/03 06:12:08;;;;;;;4.37;2.03;;;1.60;99.90;;;;;;5086617;28;20410;-79
2021/03/03 06:14:34;;;;;;;7.03;1.90;;;1.60;99.90;;;;;;5105040;28;20427;-79
2021/03/03 06:17:00;;;;;;;2.60;1.80;;;1.70;99.90;;;;;;5104457;28;20402;-79
2021/03/03 06:19:26;;;;;;;3.00;1.73;;;1.50;99.90;;;;;;5104740;28;20540;-79
2021/03/03 06:21:52;;;;;;;4.73;1.67;;;1.60;99.90;;;;;;5105524;28;20176;-79
2021/03/03 06:24:18;;;;;;;5.00;1.73;;;1.60;99.90;;;;;;5087156;28;20537;-79
2021/03/03 06:26:58;;;;;;;2.43;1.57;;;1.60;99.90;;;;;;5105541;28;20635;-79
2021/03/03 06:29:24;;;;;;;2.43;1.73;;;1.60;99.90;;;;;;5106361;28;20453;-79
2021/03/03 06:31:50;;;;;;;2.90;1.90;;;1.80;99.90;;;;;;5105008;28;20489;-79
2021/03/03 06:34:17;;;;;;;1.83;1.50;;;1.80;99.90;;;;;;5103171;28;20204;-79
2021/03/03 06:36:55;;;;;;;7.30;2.00;;;1.80;99.90;;;;;;5083039;28;20176;-79
2021/03/03 06:39:26;;;;;;;2.37;1.67;;;1.90;99.90;;;;;;5099365;28;20486;-77
2021/03/03 06:41:58;;;;;;;5.67;1.60;;;2.00;99.90;;;;;;5102084;28;20406;-79
2021/03/03 06:44:26;;;;;;;2.67;1.80;;;2.10;99.90;;;;;;5102645;28;20427;-79
2021/03/03 06:47:04;;;;;;;3.73;2.20;;;2.10;99.90;;;;;;5103637;28;20180;-79
2021/03/03 06:49:29;;;;;;;2.63;1.70;;;2.20;99.90;;;;;;5103181;28;20219;-79
2021/03/03 06:51:55;;;;;;;5.00;2.13;;;2.20;99.90;;;;;;5103894;28;20809;-79
2021/03/03 06:54:23;;;;;;;4.43;1.63;;;2.30;99.90;;;;;;5085123;28;20532;-80
2021/03/03 06:56:54;;;;;;;2.40;1.93;;;2.30;99.90;;;;;;5102421;28;20169;-79
2021/03/03 06:59:33;;;;;;;3.57;2.03;;;2.30;99.90;;;;;;5085163;28;20440;-79
2021/03/03 07:02:11;;;;;;;7.33;2.00;;;2.50;99.90;;;;;;5101628;28;20449;-78
2021/03/03 07:04:37;;;;;;;3.63;1.87;;;2.50;99.90;;;;;;5102778;28;20453;-79
2021/03/03 07:07:17;;;;;;;7.07;2.07;;;2.60;99.90;;;;;;5084809;28;20441;-79
2021/03/03 07:09:53;;;;;;;2.07;1.50;;;2.60;99.90;;;;;;5084969;28;20469;-79
2021/03/03 07:12:21;;;;;;;3.77;2.27;;;2.70;99.90;;;;;;5084974;28;20723;-79
2021/03/03 07:14:59;;;;;;;10.03;2.13;;;2.70;99.90;;;;;;5102549;28;20402;-79
2021/03/03 07:17:38;;;;;;;3.30;2.00;;;2.70;99.90;;;;;;5104423;28;20174;-79
2021/03/03 07:20:10;;;;;;;4.60;1.93;;;2.70;99.90;;;;;;5086235;28;20817;-79
2021/03/03 07:22:38;;;;;;;4.23;2.07;;;2.70;99.90;;;;;;5085256;28;20509;-79
2021/03/03 07:25:11;;;;;;;3.80;1.90;;;2.80;99.90;;;;;;5085129;28;20176;-79
2021/03/03 07:27:38;;;;;;;4.30;2.10;;;2.80;99.90;;;;;;5103978;28;20421;-80
2021/03/03 07:30:16;;;;;;;3.97;2.30;;;2.90;99.90;;;;;;5085107;28;20172;-79
2021/03/03 07:32:43;;;;;;;3.47;1.77;;;2.90;99.90;;;;;;5084415;28;20195;-79
2021/03/03 07:35:10;;;;;;;2.90;1.90;;;3.00;99.90;;;;;;5103884;28;20621;-80
2021/03/03 07:37:46;;;;;;;5.90;2.10;;;3.10;99.90;;;;;;5101939;28;20168;-79
2021/03/03 07:40:15;;;;;;;2.63;1.90;;;3.20;99.90;;;;;;5102874;28;20398;-80
2021/03/03 07:42:45;;;;;;;2.73;2.43;;;3.30;99.90;;;;;;5084287;28;20670;-79
2021/03/03 07:45:13;;;;;;;4.37;2.30;;;3.40;99.90;;;;;;5103078;28;20164;-79
2021/03/03 07:47:42;;;;;;;4.60;2.57;;;3.50;99.90;;;;;;5102141;28;20255;-79
2021/03/03 07:50:16;;;;;;;4.27;2.27;;;3.50;99.90;;;;;;5102370;28;20200;-79
2021/03/03 07:52:47;;;;;;;3.30;2.17;;;3.60;99.90;;;;;;5103124;28;20184;-80
2021/03/03 07:55:13;;;;;;;11.00;4.07;;;3.80;99.90;;;;;;5084918;28;20646;-80
2021/03/03 07:57:45;;;;;;;7.00;3.33;;;3.80;99.90;;;;;;5103354;28;20903;-80
2021/03/03 08:00:19;;;;;;;5.43;2.83;;;4.00;99.90;;;;;;5085122;28;20934;-80
2021/03/03 08:02:49;;;;;;;10.80;2.37;;;4.00;99.90;;;;;;5103033;28;20188;-80
2021/03/03 08:05:36;;;;;;;4.17;2.40;;;4.20;99.90;;;;;;5103899;28;20193;-80
2021/03/03 08:08:13;;;;;;;3.20;2.10;;;4.20;99.90;;;;;;5085007;28;20219;-80
2021/03/03 08:10:45;;;;;;;2.27;1.90;;;4.20;99.90;;;;;;5084743;28;20177;-80
2021/03/03 08:13:12;;;;;;;3.07;2.03;;;4.30;99.90;;;;;;5084941;28;20669;-80
2021/03/03 08:15:38;;;;;;;3.43;2.10;;;4.30;99.90;;;;;;5103255;28;20174;-80
2021/03/03 08:18:23;;;;;;;7.67;2.83;;;4.20;99.90;;;;;;5103404;28;20232;-80
2021/03/03 08:20:56;;;;;;;6.27;2.53;;;4.30;99.90;;;;;;5084840;28;20176;-80
2021/03/03 08:23:34;;;;;;;4.97;1.90;;;4.30;99.90;;;;;;5084476;28;20679;-80
2021/03/03 08:26:16;;;;;;;4.10;1.97;;;4.20;99.90;;;;;;5085326;28;20182;-80
2021/03/03 08:28:43;;;;;;;2.70;2.03;;;4.30;99.90;;;;;;5088414;28;20193;-80
2021/03/03 08:31:08;;;;;;;3.10;2.00;;;4.40;99.90;;;;;;5107388;28;20199;-80
2021/03/03 08:33:39;;;;;;;4.43;2.70;;;4.50;99.90;;;;;;5106962;28;20210;-80
2021/03/03 08:36:06;;;;;;;5.23;2.60;;;4.60;99.90;;;;;;5088845;28;20177;-80
2021/03/03 08:38:32;;;;;;;9.07;3.20;;;4.70;99.90;;;;;;5107360;28;20606;-80
2021/03/03 08:41:15;;;;;;;4.73;2.77;;;4.80;99.90;;;;;;5106893;28;20658;-80
2021/03/03 08:43:43;;;;;;;4.70;2.63;;;4.90;99.90;;;;;;5107203;28;20193;-80
2021/03/03 08:46:21;;;;;;;4.07;2.57;;;5.00;99.90;;;;;;5107388;28;20184;-80
2021/03/03 08:48:53;;;;;;;3.40;2.47;;;5.10;99.90;;;;;;5088517;28;20200;-80
2021/03/03 08:51:32;;;;;;;5.63;2.30;;;5.20;99.90;;;;;;5086982;28;20211;-80
2021/03/03 08:54:00;;;;;;;5.03;2.40;;;5.30;99.70;;;;;;5108250;28;20269;-80
2021/03/03 08:56:44;;;;;;;3.33;2.37;;;5.50;99.50;;;;;;5090137;28;20178;-80
2021/03/03 08:59:29;;;;;;;4.80;1.90;;;5.60;99.10;;;;;;5107961;28;20201;-79
2021/03/03 09:01:55;;;;;;;2.73;2.00;;;5.70;98.90;;;;;;5091058;28;20167;-80
2021/03/03 09:04:23;;;;;;;4.37;2.67;;;5.80;98.50;;;;;;5091040;28;20203;-80
2021/03/03 09:06:55;;;;;;;4.33;2.50;;;6.00;98.70;;;;;;5107873;28;20251;-80
2021/03/03 09:09:21;;;;;;;2.67;1.90;;;6.20;97.70;;;;;;5090776;28;20225;-80
2021/03/03 09:11:47;;;;;;;5.70;1.90;;;6.30;96.80;;;;;;5090405;28;20177;-80
2021/03/03 09:14:13;;;;;;;4.57;1.97;;;6.20;96.60;;;;;;5108957;28;20194;-79
2021/03/03 09:16:53;;;;;;;2.73;2.20;;;6.30;96.90;;;;;;5090149;28;20170;-80
2021/03/03 09:19:19;;;;;;;3.40;2.10;;;6.50;96.40;;;;;;5090269;28;20562;-80
2021/03/03 09:21:44;;;;;;;6.93;2.30;;;6.60;95.80;;;;;;5108225;28;20174;-80
2021/03/03 09:24:12;;;;;;;7.63;4.30;;;6.50;96.10;;;;;;5090174;28;20194;-80
2021/03/03 09:26:38;;;;;;;7.43;4.33;;;6.50;96.10;;;;;;5106651;28;20176;-80
2021/03/03 09:29:04;;;;;;;3.93;2.27;;;6.50;96.30;;;;;;5107127;28;20683;-80
2021/03/03 09:31:32;;;;;;;3.17;2.30;;;6.70;96.20;;;;;;5108004;28;20520;-80
2021/03/03 09:33:58;;;;;;;3.40;1.90;;;6.80;96.20;;;;;;5107822;28;20186;-80
2021/03/03 09:36:24;;;;;;;2.37;1.50;;;7.00;95.70;;;;;;5108220;28;20167;-80
2021/03/03 09:38:58;;;;;;;3.47;1.90;;;7.20;95.10;;;;;;5106628;28;20197;-80
2021/03/03 09:41:24;;;;;;;2.40;2.20;;;7.30;94.80;;;;;;5089228;28;20172;-79
2021/03/03 09:44:07;;;;;;;3.90;2.50;;;7.30;94.00;;;;;;5107773;28;20199;-80
2021/03/03 09:47:01;;;;;;;4.23;2.40;;;7.50;93.60;;;;;;5089138;28;20205;-80
2021/03/03 09:49:31;;;;;;;8.93;1.73;;;7.60;92.90;;;;;;5090387;28;20207;-80
2021/03/03 09:51:58;;;;;;;4.47;1.90;;;7.70;92.00;;;;;;5090466;28;20186;-80
2021/03/03 09:54:34;;;;;;;3.77;1.90;;;7.80;91.70;;;;;;5108542;28;20244;-80
2021/03/03 09:57:10;;;;;;;3.77;2.10;;;8.00;91.10;;;;;;5108059;28;20163;-81
2021/03/03 09:59:43;;;;;;;5.10;2.47;;;8.00;90.30;;;;;;5108156;28;20174;-80
2021/03/03 10:02:11;;;;;;;3.13;2.10;;;8.10;89.70;;;;;;5107990;28;20179;-80
2021/03/03 10:04:42;;;;;;;3.30;2.50;;;8.20;89.60;;;;;;5108238;28;20277;-80
2021/03/03 10:07:11;;;;;;;5.97;2.60;;;8.40;89.40;;;;;;5107116;28;20203;-80
2021/03/03 10:09:42;;;;;;;4.80;2.50;;;8.60;89.60;;;;;;5107300;28;20568;-80
2021/03/03 10:12:10;;;;;;;4.10;2.87;;;8.70;88.70;;;;;;5107887;28;20160;-80
2021/03/03 10:14:56;;;;;;;7.00;3.27;;;8.80;87.20;;;;;;5107079;28;20196;-79
2021/03/03 10:17:32;;;;;;;4.77;2.40;;;8.90;87.30;;;;;;5089276;28;20172;-79
2021/03/03 10:19:58;;;;;;;7.87;2.70;;;8.80;86.40;;;;;;5107291;28;20164;-80
2021/03/03 10:22:25;;;;;;;8.50;3.20;;;8.90;86.90;;;;;;5089152;28;20178;-80
2021/03/03 10:24:59;;;;;;;6.70;3.20;;;9.10;87.30;;;;;;5089781;28;20168;-80
2021/03/03 10:27:28;;;;;;;8.33;3.37;;;9.30;87.10;;;;;;5107352;28;20160;-80
2021/03/03 10:29:54;;;;;;;13.00;3.00;;;9.50;86.80;;;;;;5089270;28;20515;-80
2021/03/03 10:32:19;;;;;;;4.57;2.63;;;9.60;84.80;;;;;;5107207;28;20175;-80
2021/03/03 10:34:45;;;;;;;6.93;3.30;;;9.70;85.80;;;;;;5088020;28;20179;-80
2021/03/03 10:37:26;;;;;;;6.80;3.60;;;9.80;84.70;;;;;;5105144;28;20490;-80
2021/03/03 10:39:53;;;;;;;6.40;4.00;;;9.90;84.20;;;;;;5104809;28;20233;-79
2021/03/03 10:42:24;;;;;;;5.67;3.63;;;9.90;84.20;;;;;;5106023;28;20179;-80
2021/03/03 10:44:52;;;;;;;5.30;2.87;;;10.00;82.30;;;;;;5087209;28;20176;-80
2021/03/03 10:47:45;;;;;;;8.23;3.07;;;10.10;82.60;;;;;;5087097;28;20649;-80
2021/03/03 10:50:12;;;;;;;5.30;2.80;;;10.30;81.70;;;;;;5105190;28;20235;-80
2021/03/03 10:52:38;;;;;;;6.20;2.83;;;10.40;81.40;;;;;;5087387;28;20192;-80
2021/03/03 10:55:20;;;;;;;7.20;2.93;;;10.60;80.60;;;;;;5106214;28;20167;-80
2021/03/03 10:58:19;;;;;;;10.10;3.10;;;10.70;80.00;;;;;;5087843;28;20183;-80
2021/03/03 11:00:58;;;;;;;6.67;3.30;;;11.00;80.70;;;;;;5071924;28;20184;-80
2021/03/03 11:03:25;;;;;;;4.23;3.33;;;11.30;81.00;;;;;;5087735;28;20191;-79
2021/03/03 11:05:56;;;;;;;6.93;3.40;;;11.50;80.00;;;;;;5106246;28;20171;-81
2021/03/03 11:08:23;;;;;;;6.93;3.57;;;11.70;79.20;;;;;;5106630;28;20223;-79
2021/03/03 11:10:50;;;;;;;9.13;4.90;;;11.80;77.00;;;;;;5104635;28;20205;-80
2021/03/03 11:13:16;;;;;;;6.50;3.17;;;12.00;81.80;;;;;;5103019;28;20192;-79
2021/03/03 11:15:43;;;;;;;5.77;3.67;;;12.10;75.60;;;;;;5102903;28;20173;-79
2021/03/03 11:18:10;;;;;;;7.63;3.23;;;12.10;76.20;;;;;;5102329;28;20176;-80
2021/03/03 11:20:37;;;;;;;7.87;4.00;;;12.10;75.00;;;;;;5101055;28;20225;-80
2021/03/03 11:23:04;;;;;;;4.93;3.27;;;12.10;75.00;;;;;;5102373;28;20285;-80
2021/03/03 11:25:30;;;;;;;5.00;3.30;;;12.00;73.30;;;;;;5101278;28;20180;-80
2021/03/03 11:27:56;;;;;;;7.17;3.20;;;12.10;74.60;;;;;;5102134;28;20257;-80
2021/03/03 11:30:22;;;;;;;9.50;3.30;;;12.30;73.80;;;;;;5083313;28;20176;-80
2021/03/03 11:32:47;;;;;;;7.17;2.70;;;12.50;74.00;;;;;;5101894;28;20286;-80
2021/03/03 11:35:14;;;;;;;5.23;2.97;;;12.60;72.60;;;;;;5082361;28;20184;-80
2021/03/03 11:37:39;;;;;;;6.17;4.30;;;12.50;71.60;;;;;;5101770;28;20261;-80
2021/03/03 11:40:05;;;;;;;6.83;2.60;;;12.60;72.70;;;;;;5101569;28;20564;-80
2021/03/03 11:42:31;;;;;;;5.83;3.10;;;12.60;69.10;;;;;;5082930;28;20187;-80
2021/03/03 11:44:57;;;;;;;3.90;3.17;;;12.60;69.90;;;;;;5082589;28;20196;-80
2021/03/03 11:47:22;;;;;;;8.67;2.47;;;12.70;67.40;;;;;;5083915;28;20198;-80
2021/03/03 11:49:48;;;;;;;5.40;2.73;;;12.70;64.70;;;;;;5102588;28;20234;-80
2021/03/03 11:52:14;;;;;;;5.90;2.30;;;12.70;62.10;;;;;;5102566;28;20295;-80
2021/03/03 11:54:40;;;;;;;5.23;2.73;;;12.80;63.10;;;;;;5084188;28;20564;-80
2021/03/03 11:57:06;;;;;;;6.17;3.40;;;12.80;63.50;;;;;;5102722;28;20216;-80
2021/03/03 11:59:31;;;;;;;4.63;2.43;;;12.80;64.10;;;;;;5084181;28;20177;-79
2021/03/03 12:01:58;;;;;;;4.60;2.63;;;12.80;62.90;;;;;;5086716;28;20657;-79
2021/03/03 12:04:24;;;;;;;6.47;3.07;;;12.80;61.80;;;;;;5089265;28;20216;-79
2021/03/03 12:06:50;;;;;;;4.67;2.73;;;12.80;61.40;;;;;;5107026;28;20195;-79
2021/03/03 12:09:16;;;;;;;3.60;2.47;;;12.90;62.90;;;;;;5107110;28;20192;-79
2021/03/03 12:11:42;;;;;;;3.37;2.70;;;12.90;60.50;;;;;;5106755;28;20622;-79
2021/03/03 12:14:08;;;;;;;6.63;2.93;;;13.10;60.40;;;;;;5107132;28;20192;-80
2021/03/03 12:16:33;;;;;;;3.80;2.40;;;13.10;59.40;;;;;;5106928;28;20199;-79
2021/03/03 12:18:59;;;;;;;4.40;2.73;;;13.10;60.20;;;;;;5107035;28;20271;-79
2021/03/03 12:21:25;;;;;;;5.37;3.00;;;13.10;59.30;;;;;;5107554;28;20622;-79
2021/03/03 12:23:50;;;;;;;8.57;4.30;;;13.00;59.40;;;;;;5106491;28;20200;-80
2021/03/03 12:26:16;;;;;;;9.27;4.73;;;13.00;60.20;;;;;;5088139;28;20185;-79
2021/03/03 12:28:42;;;;;;;5.27;3.30;;;13.00;59.00;;;;;;5088332;28;20211;-79
2021/03/03 12:31:09;;;;;;;4.87;3.67;;;13.00;58.50;;;;;;5106868;28;20173;-79
2021/03/03 12:33:35;;;;;;;5.30;3.80;;;13.00;59.60;;;;;;5106995;28;20192;-79
2021/03/03 12:36:01;;;;;;;4.27;3.43;;;13.00;58.00;;;;;;5106325;28;20179;-79
2021/03/03 12:38:27;;;;;;;6.23;3.50;;;13.00;56.70;;;;;;5087976;28;20316;-80
2021/03/03 12:40:52;;;;;;;7.40;4.10;;;13.00;55.90;;;;;;5088398;28;20180;-80
2021/03/03 12:43:18;;;;;;;5.17;3.47;;;12.90;54.30;;;;;;5106321;28;20227;-80
2021/03/03 12:45:44;;;;;;;3.77;3.07;;;12.90;55.70;;;;;;5105968;28;20223;-80
2021/03/03 12:48:09;;;;;;;6.43;4.20;;;12.80;52.80;;;;;;5105795;28;20542;-79
2021/03/03 12:50:35;;;;;;;4.13;3.10;;;12.90;53.20;;;;;;5106555;28;20188;-79
2021/03/03 12:53:01;;;;;;;6.77;4.57;;;12.90;53.70;;;;;;5106868;28;20200;-79
2021/03/03 12:55:26;;;;;;;8.60;5.50;;;12.90;52.40;;;;;;5088036;28;20191;-79
2021/03/03 12:57:52;;;;;;;11.40;5.50;;;12.80;52.70;;;;;;5105890;28;20203;-79
2021/03/03 13:00:18;;;;;;;11.47;6.60;;;12.90;53.70;;;;;;5106111;28;20645;-79
2021/03/03 13:02:48;;;;;;;6.77;4.70;;;12.90;52.50;;;;;;5087806;28;20598;-80
2021/03/03 13:05:14;;;;;;;8.93;3.90;;;12.90;52.20;;;;;;5107090;28;20514;-79
2021/03/03 13:07:40;;;;;;;8.23;5.50;;;12.80;51.50;;;;;;5104943;28;20239;-79
2021/03/03 13:10:06;;;;;;;10.20;6.60;;;12.80;51.80;;;;;;5104398;28;20644;-79
2021/03/03 13:12:32;;;;;;;6.77;4.93;;;12.80;51.60;;;;;;5103445;28;20168;-79
2021/03/03 13:14:58;;;;;;;10.80;4.67;;;12.80;52.30;;;;;;5104353;28;20594;-80
2021/03/03 13:17:23;;;;;;;6.80;3.40;;;12.80;53.40;;;;;;5104198;28;20168;-79
2021/03/03 13:19:49;;;;;;;4.97;3.50;;;12.80;53.70;;;;;;5104154;28;20172;-79
2021/03/03 13:22:15;;;;;;;3.97;3.27;;;12.80;53.10;;;;;;5106978;28;20196;-79
2021/03/03 13:24:41;;;;;;;3.93;3.50;;;12.80;53.30;;;;;;5106027;28;20192;-79
2021/03/03 13:27:06;;;;;;;8.23;4.67;;;12.70;52.90;;;;;;5105464;28;20259;-79
2021/03/03 13:29:32;;;;;;;4.80;3.90;;;12.70;54.20;;;;;;5105304;28;20594;-79
2021/03/03 13:31:59;;;;;;;5.87;4.37;;;12.70;54.10;;;;;;5106068;28;20592;-79
2021/03/03 13:34:26;;;;;;;7.60;5.63;;;12.70;53.70;;;;;;5106780;28;20203;-79
2021/03/03 13:36:52;;;;;;;13.37;9.87;;;12.70;53.00;;;;;;5106234;28;20179;-79
2021/03/03 13:39:18;;;;;;;14.50;10.27;;;12.70;52.90;;;;;;5087866;28;20176;-79
2021/03/03 13:41:45;;;;;;;10.33;6.90;;;12.70;55.20;;;;;;5105237;28;20168;-79
2021/03/03 13:44:11;;;;;;;7.13;4.57;;;12.70;54.20;;;;;;5085136;28;20204;-80